sensor_id;sensor_type;location;lat;lon;timestamp;P1;durP1;ratioP1;P2;durP2;ratioP2
15354;SDS011;7777;52.254;9.618;2023-07-29T00:01:12;1.80;;;1.10;;
15354;SDS011;7777;52.254;9.618;2023-07-29T00:03:38;3.10;;;1.30;;
15354;SDS011;7777;52.254;9.618;2023-07-29T00:06:04;1.20;;;1.03;;
15354;SDS011;7777;52.254;9.618;2023-07-29T00:08:30;1.90;;;1.10;;
15354;SDS011;7777;52.254;9.618;2023-07-29T00:10:55;1.67;;;1.10;;
15354;SDS011;7777;52.254;9.618;2023-07-29T00:13:21;1.13;;;0.90;;
15354;SDS011;7777;52.254;9.618;2023-07-29T00:15:47;3.10;;;1.20;;
15354;SDS011;7777;52.254;9.618;2023-07-29T00:18:18;1.20;;;1.10;;
15354;SDS011;7777;52.254;9.618;2023-07-29T00:20:44;1.70;;;1.10;;
15354;SDS011;7777;52.254;9.618;2023-07-29T00:23:10;5.67;;;1.23;;
15354;SDS011;7777;52.254;9.618;2023-07-29T00:25:36;3.20;;;1.20;;
15354;SDS011;7777;52.254;9.618;2023-07-29T00:28:01;1.73;;;1.03;;
15354;SDS011;7777;52.254;9.618;2023-07-29T00:30:27;5.27;;;1.00;;
15354;SDS011;7777;52.254;9.618;2023-07-29T00:32:53;3.47;;;1.27;;
15354;SDS011;7777;52.254;9.618;2023-07-29T00:35:19;1.90;;;1.37;;
15354;SDS011;7777;52.254;9.618;2023-07-29T00:37:44;1.23;;;1.10;;
15354;SDS011;7777;52.254;9.618;2023-07-29T00:40:19;1.40;;;1.17;;
15354;SDS011;7777;52.254;9.618;2023-07-29T00:42:46;1.33;;;1.20;;
15354;SDS011;7777;52.254;9.618;2023-07-29T00:45:11;2.03;;;1.27;;
15354;SDS011;7777;52.254;9.618;2023-07-29T00:47:37;1.90;;;1.53;;
15354;SDS011;7777;52.254;9.618;2023-07-29T00:50:05;1.10;;;1.00;;
15354;SDS011;7777;52.254;9.618;2023-07-29T00:52:31;3.33;;;1.23;;
15354;SDS011;7777;52.254;9.618;2023-07-29T00:54:58;1.20;;;0.90;;
15354;SDS011;7777;52.254;9.618;2023-07-29T00:57:23;2.53;;;1.30;;
15354;SDS011;7777;52.254;9.618;2023-07-29T00:59:50;1.37;;;1.20;;
15354;SDS011;7777;52.254;9.618;2023-07-29T01:02:17;1.43;;;1.20;;
15354;SDS011;7777;52.254;9.618;2023-07-29T01:04:42;1.63;;;1.20;;
15354;SDS011;7777;52.254;9.618;2023-07-29T01:07:16;3.30;;;1.53;;
15354;SDS011;7777;52.254;9.618;2023-07-29T01:10:01;4.53;;;1.20;;
15354;SDS011;7777;52.254;9.618;2023-07-29T01:12:45;1.27;;;1.00;;
15354;SDS011;7777;52.254;9.618;2023-07-29T01:18:32;2.47;;;1.20;;
15354;SDS011;7777;52.254;9.618;2023-07-29T01:21:06;1.17;;;1.03;;
15354;SDS011;7777;52.254;9.618;2023-07-29T01:23:34;1.17;;;1.07;;
15354;SDS011;7777;52.254;9.618;2023-07-29T01:26:01;3.30;;;1.60;;
15354;SDS011;7777;52.254;9.618;2023-07-29T01:28:28;2.43;;;1.17;;
15354;SDS011;7777;52.254;9.618;2023-07-29T01:30:58;1.93;;;1.30;;
15354;SDS011;7777;52.254;9.618;2023-07-29T01:34:11;1.63;;;1.40;;
15354;SDS011;7777;52.254;9.618;2023-07-29T01:36:44;3.13;;;1.23;;
15354;SDS011;7777;52.254;9.618;2023-07-29T01:39:11;2.40;;;1.47;;
15354;SDS011;7777;52.254;9.618;2023-07-29T01:41:39;1.53;;;1.40;;
15354;SDS011;7777;52.254;9.618;2023-07-29T01:44:06;2.37;;;1.40;;
15354;SDS011;7777;52.254;9.618;2023-07-29T01:46:35;1.93;;;1.73;;
15354;SDS011;7777;52.254;9.618;2023-07-29T01:49:02;1.77;;;1.60;;
15354;SDS011;7777;52.254;9.618;2023-07-29T01:51:28;2.13;;;1.70;;
15354;SDS011;7777;52.254;9.618;2023-07-29T01:53:53;2.43;;;1.50;;
15354;SDS011;7777;52.254;9.618;2023-07-29T01:56:20;2.00;;;1.50;;
15354;SDS011;7777;52.254;9.618;2023-07-29T01:58:46;1.63;;;1.40;;
15354;SDS011;7777;52.254;9.618;2023-07-29T02:01:12;1.60;;;1.43;;
15354;SDS011;7777;52.254;9.618;2023-07-29T02:03:38;1.60;;;1.40;;
15354;SDS011;7777;52.254;9.618;2023-07-29T02:06:04;3.27;;;1.97;;
15354;SDS011;7777;52.254;9.618;2023-07-29T02:08:30;2.20;;;1.33;;
15354;SDS011;7777;52.254;9.618;2023-07-29T02:10:56;5.97;;;1.70;;
15354;SDS011;7777;52.254;9.618;2023-07-29T02:13:21;1.57;;;1.30;;
15354;SDS011;7777;52.254;9.618;2023-07-29T02:15:47;2.30;;;1.53;;
15354;SDS011;7777;52.254;9.618;2023-07-29T02:18:13;2.90;;;1.60;;
15354;SDS011;7777;52.254;9.618;2023-07-29T02:20:38;4.83;;;1.57;;
15354;SDS011;7777;52.254;9.618;2023-07-29T02:23:04;2.20;;;1.40;;
15354;SDS011;7777;52.254;9.618;2023-07-29T02:25:30;1.57;;;1.20;;
15354;SDS011;7777;52.254;9.618;2023-07-29T02:27:56;3.10;;;1.30;;
15354;SDS011;7777;52.254;9.618;2023-07-29T02:30:21;3.60;;;1.50;;
15354;SDS011;7777;52.254;9.618;2023-07-29T02:32:47;2.07;;;1.40;;
15354;SDS011;7777;52.254;9.618;2023-07-29T02:35:13;3.67;;;1.47;;
15354;SDS011;7777;52.254;9.618;2023-07-29T02:37:38;2.00;;;1.60;;
15354;SDS011;7777;52.254;9.618;2023-07-29T02:40:04;1.43;;;1.33;;
15354;SDS011;7777;52.254;9.618;2023-07-29T02:42:31;3.40;;;1.53;;
15354;SDS011;7777;52.254;9.618;2023-07-29T02:44:56;2.63;;;1.73;;
15354;SDS011;7777;52.254;9.618;2023-07-29T02:47:22;2.30;;;1.50;;
15354;SDS011;7777;52.254;9.618;2023-07-29T02:49:48;2.00;;;1.30;;
15354;SDS011;7777;52.254;9.618;2023-07-29T02:52:13;1.83;;;1.17;;
15354;SDS011;7777;52.254;9.618;2023-07-29T02:54:39;3.33;;;1.57;;
15354;SDS011;7777;52.254;9.618;2023-07-29T02:57:05;1.43;;;1.30;;
15354;SDS011;7777;52.254;9.618;2023-07-29T02:59:31;1.43;;;1.23;;
15354;SDS011;7777;52.254;9.618;2023-07-29T03:01:56;1.60;;;1.50;;
15354;SDS011;7777;52.254;9.618;2023-07-29T03:04:22;4.57;;;1.60;;
15354;SDS011;7777;52.254;9.618;2023-07-29T03:06:48;2.57;;;1.50;;
15354;SDS011;7777;52.254;9.618;2023-07-29T03:09:14;2.00;;;1.40;;
15354;SDS011;7777;52.254;9.618;2023-07-29T03:11:40;2.90;;;1.60;;
15354;SDS011;7777;52.254;9.618;2023-07-29T03:14:05;1.90;;;1.50;;
15354;SDS011;7777;52.254;9.618;2023-07-29T03:16:31;2.03;;;1.30;;
15354;SDS011;7777;52.254;9.618;2023-07-29T03:18:57;1.93;;;1.47;;
15354;SDS011;7777;52.254;9.618;2023-07-29T03:21:28;1.90;;;1.50;;
15354;SDS011;7777;52.254;9.618;2023-07-29T03:23:53;1.90;;;1.10;;
15354;SDS011;7777;52.254;9.618;2023-07-29T03:26:19;1.57;;;1.40;;
15354;SDS011;7777;52.254;9.618;2023-07-29T03:28:45;1.43;;;1.30;;
15354;SDS011;7777;52.254;9.618;2023-07-29T03:31:11;2.57;;;1.47;;
15354;SDS011;7777;52.254;9.618;2023-07-29T03:33:37;2.13;;;1.27;;
15354;SDS011;7777;52.254;9.618;2023-07-29T03:36:03;1.87;;;1.33;;
15354;SDS011;7777;52.254;9.618;2023-07-29T03:38:29;2.67;;;1.53;;
15354;SDS011;7777;52.254;9.618;2023-07-29T03:40:56;2.63;;;1.73;;
15354;SDS011;7777;52.254;9.618;2023-07-29T03:43:22;3.27;;;1.57;;
15354;SDS011;7777;52.254;9.618;2023-07-29T03:45:48;1.97;;;1.50;;
15354;SDS011;7777;52.254;9.618;2023-07-29T03:48:13;4.23;;;1.87;;
15354;SDS011;7777;52.254;9.618;2023-07-29T03:50:39;4.50;;;1.90;;
15354;SDS011;7777;52.254;9.618;2023-07-29T03:53:05;2.60;;;1.23;;
15354;SDS011;7777;52.254;9.618;2023-07-29T03:55:31;1.40;;;1.27;;
15354;SDS011;7777;52.254;9.618;2023-07-29T03:57:58;3.30;;;1.20;;
15354;SDS011;7777;52.254;9.618;2023-07-29T04:00:25;4.20;;;1.37;;
15354;SDS011;7777;52.254;9.618;2023-07-29T04:02:51;2.03;;;1.30;;
15354;SDS011;7777;52.254;9.618;2023-07-29T04:05:17;1.43;;;1.33;;
15354;SDS011;7777;52.254;9.618;2023-07-29T04:07:43;1.53;;;1.30;;
15354;SDS011;7777;52.254;9.618;2023-07-29T04:10:09;6.13;;;1.83;;
15354;SDS011;7777;52.254;9.618;2023-07-29T04:12:36;1.80;;;1.60;;
15354;SDS011;7777;52.254;9.618;2023-07-29T04:15:01;1.50;;;1.37;;
15354;SDS011;7777;52.254;9.618;2023-07-29T04:17:27;1.83;;;1.53;;
15354;SDS011;7777;52.254;9.618;2023-07-29T04:19:53;2.63;;;1.73;;
15354;SDS011;7777;52.254;9.618;2023-07-29T04:22:19;4.23;;;1.57;;
15354;SDS011;7777;52.254;9.618;2023-07-29T04:24:45;1.63;;;1.40;;
15354;SDS011;7777;52.254;9.618;2023-07-29T04:27:11;5.43;;;1.60;;
15354;SDS011;7777;52.254;9.618;2023-07-29T04:29:37;6.50;;;1.80;;
15354;SDS011;7777;52.254;9.618;2023-07-29T04:32:03;1.53;;;1.40;;
15354;SDS011;7777;52.254;9.618;2023-07-29T04:34:30;1.80;;;1.20;;
15354;SDS011;7777;52.254;9.618;2023-07-29T04:36:56;1.53;;;1.33;;
15354;SDS011;7777;52.254;9.618;2023-07-29T04:39:21;3.93;;;1.50;;
15354;SDS011;7777;52.254;9.618;2023-07-29T04:41:47;2.03;;;1.30;;
15354;SDS011;7777;52.254;9.618;2023-07-29T04:44:13;3.17;;;1.60;;
15354;SDS011;7777;52.254;9.618;2023-07-29T04:46:39;4.70;;;1.70;;
15354;SDS011;7777;52.254;9.618;2023-07-29T04:49:05;3.27;;;1.50;;
15354;SDS011;7777;52.254;9.618;2023-07-29T04:51:30;3.97;;;1.40;;
15354;SDS011;7777;52.254;9.618;2023-07-29T04:53:57;1.80;;;1.40;;
15354;SDS011;7777;52.254;9.618;2023-07-29T04:56:23;1.50;;;1.20;;
15354;SDS011;7777;52.254;9.618;2023-07-29T04:58:49;2.07;;;1.60;;
15354;SDS011;7777;52.254;9.618;2023-07-29T05:01:15;3.20;;;1.87;;
15354;SDS011;7777;52.254;9.618;2023-07-29T05:03:41;5.00;;;1.60;;
15354;SDS011;7777;52.254;9.618;2023-07-29T05:06:06;1.73;;;1.50;;
15354;SDS011;7777;52.254;9.618;2023-07-29T05:08:32;2.10;;;1.30;;
15354;SDS011;7777;52.254;9.618;2023-07-29T05:10:58;2.10;;;1.43;;
15354;SDS011;7777;52.254;9.618;2023-07-29T05:13:24;2.77;;;1.40;;
15354;SDS011;7777;52.254;9.618;2023-07-29T05:15:49;1.87;;;1.20;;
15354;SDS011;7777;52.254;9.618;2023-07-29T05:18:16;3.07;;;1.67;;
15354;SDS011;7777;52.254;9.618;2023-07-29T05:20:42;4.87;;;1.60;;
15354;SDS011;7777;52.254;9.618;2023-07-29T05:23:07;2.37;;;1.30;;
15354;SDS011;7777;52.254;9.618;2023-07-29T05:25:33;2.73;;;1.70;;
15354;SDS011;7777;52.254;9.618;2023-07-29T05:28:02;3.00;;;1.43;;
15354;SDS011;7777;52.254;9.618;2023-07-29T05:30:32;3.03;;;1.40;;
15354;SDS011;7777;52.254;9.618;2023-07-29T05:33:02;4.37;;;1.70;;
15354;SDS011;7777;52.254;9.618;2023-07-29T05:35:32;4.00;;;1.60;;
15354;SDS011;7777;52.254;9.618;2023-07-29T05:37:58;2.70;;;1.73;;
15354;SDS011;7777;52.254;9.618;2023-07-29T05:40:24;2.57;;;1.40;;
15354;SDS011;7777;52.254;9.618;2023-07-29T05:42:49;1.70;;;1.27;;
15354;SDS011;7777;52.254;9.618;2023-07-29T05:45:15;1.57;;;1.30;;
15354;SDS011;7777;52.254;9.618;2023-07-29T05:47:41;2.10;;;1.60;;
15354;SDS011;7777;52.254;9.618;2023-07-29T05:50:07;2.93;;;1.40;;
15354;SDS011;7777;52.254;9.618;2023-07-29T05:52:33;6.40;;;1.97;;
15354;SDS011;7777;52.254;9.618;2023-07-29T05:54:59;2.07;;;1.60;;
15354;SDS011;7777;52.254;9.618;2023-07-29T05:57:25;3.77;;;1.57;;
15354;SDS011;7777;52.254;9.618;2023-07-29T05:59:51;2.00;;;1.50;;
15354;SDS011;7777;52.254;9.618;2023-07-29T06:02:17;4.83;;;1.60;;
15354;SDS011;7777;52.254;9.618;2023-07-29T06:04:43;4.40;;;1.70;;
15354;SDS011;7777;52.254;9.618;2023-07-29T06:07:08;3.73;;;1.50;;
15354;SDS011;7777;52.254;9.618;2023-07-29T06:09:34;3.50;;;1.37;;
15354;SDS011;7777;52.254;9.618;2023-07-29T06:12:00;2.40;;;1.63;;
15354;SDS011;7777;52.254;9.618;2023-07-29T06:14:28;2.67;;;1.53;;
15354;SDS011;7777;52.254;9.618;2023-07-29T06:16:54;2.37;;;1.57;;
15354;SDS011;7777;52.254;9.618;2023-07-29T06:19:20;3.30;;;1.40;;
15354;SDS011;7777;52.254;9.618;2023-07-29T06:21:46;3.03;;;1.40;;
15354;SDS011;7777;52.254;9.618;2023-07-29T06:24:12;7.53;;;1.50;;
15354;SDS011;7777;52.254;9.618;2023-07-29T06:26:38;5.57;;;1.80;;
15354;SDS011;7777;52.254;9.618;2023-07-29T06:29:07;2.63;;;1.30;;
15354;SDS011;7777;52.254;9.618;2023-07-29T06:31:32;2.70;;;1.30;;
15354;SDS011;7777;52.254;9.618;2023-07-29T06:33:58;1.30;;;1.20;;
15354;SDS011;7777;52.254;9.618;2023-07-29T06:36:24;2.67;;;1.67;;
15354;SDS011;7777;52.254;9.618;2023-07-29T06:38:50;2.80;;;1.93;;
15354;SDS011;7777;52.254;9.618;2023-07-29T06:41:16;4.33;;;1.70;;
15354;SDS011;7777;52.254;9.618;2023-07-29T06:43:41;2.03;;;1.37;;
15354;SDS011;7777;52.254;9.618;2023-07-29T06:46:07;3.53;;;2.27;;
15354;SDS011;7777;52.254;9.618;2023-07-29T06:48:33;2.77;;;1.60;;
15354;SDS011;7777;52.254;9.618;2023-07-29T06:50:59;1.53;;;1.30;;
15354;SDS011;7777;52.254;9.618;2023-07-29T06:53:26;1.53;;;1.40;;
15354;SDS011;7777;52.254;9.618;2023-07-29T06:56:00;3.87;;;1.60;;
15354;SDS011;7777;52.254;9.618;2023-07-29T06:58:26;3.83;;;1.60;;
15354;SDS011;7777;52.254;9.618;2023-07-29T07:00:52;2.10;;;1.70;;
15354;SDS011;7777;52.254;9.618;2023-07-29T07:03:18;1.93;;;1.40;;
15354;SDS011;7777;52.254;9.618;2023-07-29T07:05:44;5.30;;;1.90;;
15354;SDS011;7777;52.254;9.618;2023-07-29T07:08:10;6.27;;;1.87;;
15354;SDS011;7777;52.254;9.618;2023-07-29T07:10:36;2.10;;;1.33;;
15354;SDS011;7777;52.254;9.618;2023-07-29T07:13:01;3.47;;;1.40;;
15354;SDS011;7777;52.254;9.618;2023-07-29T07:15:27;1.87;;;1.20;;
15354;SDS011;7777;52.254;9.618;2023-07-29T07:17:53;5.57;;;1.20;;
15354;SDS011;7777;52.254;9.618;2023-07-29T07:20:19;2.23;;;1.37;;
15354;SDS011;7777;52.254;9.618;2023-07-29T07:22:44;1.90;;;1.33;;
15354;SDS011;7777;52.254;9.618;2023-07-29T07:25:10;2.47;;;1.20;;
15354;SDS011;7777;52.254;9.618;2023-07-29T07:27:36;1.47;;;1.07;;
15354;SDS011;7777;52.254;9.618;2023-07-29T07:30:02;1.80;;;1.10;;
15354;SDS011;7777;52.254;9.618;2023-07-29T07:32:28;3.03;;;1.20;;
15354;SDS011;7777;52.254;9.618;2023-07-29T07:34:54;1.43;;;1.13;;
15354;SDS011;7777;52.254;9.618;2023-07-29T07:37:20;2.30;;;1.17;;
15354;SDS011;7777;52.254;9.618;2023-07-29T07:39:46;2.17;;;1.27;;
15354;SDS011;7777;52.254;9.618;2023-07-29T07:42:11;1.70;;;1.10;;
15354;SDS011;7777;52.254;9.618;2023-07-29T07:44:37;3.43;;;0.97;;
15354;SDS011;7777;52.254;9.618;2023-07-29T07:47:03;1.57;;;1.13;;
15354;SDS011;7777;52.254;9.618;2023-07-29T07:49:29;1.20;;;1.10;;
15354;SDS011;7777;52.254;9.618;2023-07-29T07:51:55;1.10;;;1.00;;
15354;SDS011;7777;52.254;9.618;2023-07-29T07:54:20;2.43;;;0.90;;
15354;SDS011;7777;52.254;9.618;2023-07-29T07:56:46;1.40;;;1.20;;
15354;SDS011;7777;52.254;9.618;2023-07-29T07:59:12;5.03;;;1.47;;
15354;SDS011;7777;52.254;9.618;2023-07-29T08:01:38;1.20;;;1.10;;
15354;SDS011;7777;52.254;9.618;2023-07-29T08:04:04;1.40;;;1.30;;
15354;SDS011;7777;52.254;9.618;2023-07-29T08:06:31;4.10;;;1.20;;
15354;SDS011;7777;52.254;9.618;2023-07-29T08:08:58;1.10;;;1.00;;
15354;SDS011;7777;52.254;9.618;2023-07-29T08:11:24;1.77;;;1.40;;
15354;SDS011;7777;52.254;9.618;2023-07-29T08:13:50;6.43;;;1.00;;
15354;SDS011;7777;52.254;9.618;2023-07-29T08:16:16;1.20;;;1.10;;
15354;SDS011;7777;52.254;9.618;2023-07-29T08:18:55;2.60;;;1.43;;
15354;SDS011;7777;52.254;9.618;2023-07-29T08:21:34;1.37;;;1.27;;
15354;SDS011;7777;52.254;9.618;2023-07-29T08:24:01;2.33;;;1.30;;
15354;SDS011;7777;52.254;9.618;2023-07-29T08:26:27;1.60;;;1.10;;
15354;SDS011;7777;52.254;9.618;2023-07-29T08:28:53;2.20;;;1.30;;
15354;SDS011;7777;52.254;9.618;2023-07-29T08:31:18;2.77;;;1.60;;
15354;SDS011;7777;52.254;9.618;2023-07-29T08:33:44;4.33;;;2.00;;
15354;SDS011;7777;52.254;9.618;2023-07-29T08:36:10;2.87;;;1.70;;
15354;SDS011;7777;52.254;9.618;2023-07-29T08:38:36;4.53;;;1.90;;
15354;SDS011;7777;52.254;9.618;2023-07-29T08:41:07;4.23;;;2.30;;
15354;SDS011;7777;52.254;9.618;2023-07-29T08:43:51;5.27;;;2.03;;
15354;SDS011;7777;52.254;9.618;2023-07-29T08:46:25;3.33;;;2.13;;
15354;SDS011;7777;52.254;9.618;2023-07-29T08:48:51;17.97;;;2.90;;
15354;SDS011;7777;52.254;9.618;2023-07-29T08:51:17;4.63;;;2.13;;
15354;SDS011;7777;52.254;9.618;2023-07-29T08:53:46;4.77;;;2.33;;
15354;SDS011;7777;52.254;9.618;2023-07-29T08:56:14;4.37;;;2.23;;
15354;SDS011;7777;52.254;9.618;2023-07-29T08:58:40;4.87;;;1.90;;
15354;SDS011;7777;52.254;9.618;2023-07-29T09:01:07;3.67;;;2.07;;
15354;SDS011;7777;52.254;9.618;2023-07-29T09:03:33;3.20;;;2.47;;
15354;SDS011;7777;52.254;9.618;2023-07-29T09:05:59;7.50;;;2.67;;
15354;SDS011;7777;52.254;9.618;2023-07-29T09:08:27;4.67;;;2.77;;
15354;SDS011;7777;52.254;9.618;2023-07-29T09:10:53;3.40;;;3.10;;
15354;SDS011;7777;52.254;9.618;2023-07-29T09:13:20;4.83;;;3.80;;
15354;SDS011;7777;52.254;9.618;2023-07-29T09:15:46;3.47;;;3.17;;
15354;SDS011;7777;52.254;9.618;2023-07-29T09:18:16;9.63;;;4.40;;
15354;SDS011;7777;52.254;9.618;2023-07-29T09:20:48;7.27;;;4.17;;
15354;SDS011;7777;52.254;9.618;2023-07-29T09:23:15;4.13;;;3.73;;
15354;SDS011;7777;52.254;9.618;2023-07-29T09:25:42;6.40;;;4.40;;
15354;SDS011;7777;52.254;9.618;2023-07-29T09:28:10;5.50;;;4.90;;
15354;SDS011;7777;52.254;9.618;2023-07-29T09:30:38;5.20;;;4.70;;
15354;SDS011;7777;52.254;9.618;2023-07-29T09:33:05;6.07;;;4.17;;
15354;SDS011;7777;52.254;9.618;2023-07-29T09:35:35;7.40;;;4.60;;
15354;SDS011;7777;52.254;9.618;2023-07-29T09:38:02;5.30;;;4.53;;
15354;SDS011;7777;52.254;9.618;2023-07-29T09:40:34;5.03;;;4.63;;
15354;SDS011;7777;52.254;9.618;2023-07-29T09:43:01;8.10;;;6.17;;
15354;SDS011;7777;52.254;9.618;2023-07-29T09:45:28;6.83;;;6.20;;
15354;SDS011;7777;52.254;9.618;2023-07-29T09:47:55;6.27;;;5.67;;
15354;SDS011;7777;52.254;9.618;2023-07-29T09:50:23;6.10;;;5.03;;
15354;SDS011;7777;52.254;9.618;2023-07-29T09:52:50;6.03;;;5.37;;
15354;SDS011;7777;52.254;9.618;2023-07-29T09:55:18;5.83;;;5.17;;
15354;SDS011;7777;52.254;9.618;2023-07-29T09:57:52;6.43;;;5.83;;
15354;SDS011;7777;52.254;9.618;2023-07-29T10:00:26;6.13;;;5.53;;
15354;SDS011;7777;52.254;9.618;2023-07-29T10:02:53;6.23;;;5.33;;
15354;SDS011;7777;52.254;9.618;2023-07-29T10:05:21;5.27;;;4.70;;
15354;SDS011;7777;52.254;9.618;2023-07-29T10:07:48;6.73;;;4.33;;
15354;SDS011;7777;52.254;9.618;2023-07-29T10:10:16;5.67;;;5.07;;
15354;SDS011;7777;52.254;9.618;2023-07-29T10:12:42;4.30;;;3.90;;
15354;SDS011;7777;52.254;9.618;2023-07-29T10:15:09;4.57;;;4.03;;
15354;SDS011;7777;52.254;9.618;2023-07-29T10:17:35;3.53;;;3.23;;
15354;SDS011;7777;52.254;9.618;2023-07-29T10:20:04;8.93;;;3.87;;
15354;SDS011;7777;52.254;9.618;2023-07-29T10:22:38;3.80;;;3.40;;
15354;SDS011;7777;52.254;9.618;2023-07-29T10:25:16;6.10;;;3.60;;
15354;SDS011;7777;52.254;9.618;2023-07-29T10:30:15;9.77;;;3.53;;
15354;SDS011;7777;52.254;9.618;2023-07-29T10:32:44;6.50;;;3.40;;
15354;SDS011;7777;52.254;9.618;2023-07-29T10:35:12;4.20;;;3.10;;
15354;SDS011;7777;52.254;9.618;2023-07-29T10:37:39;6.07;;;3.57;;
15354;SDS011;7777;52.254;9.618;2023-07-29T10:40:06;6.70;;;3.60;;
15354;SDS011;7777;52.254;9.618;2023-07-29T10:42:37;4.20;;;3.00;;
15354;SDS011;7777;52.254;9.618;2023-07-29T10:45:25;3.07;;;2.57;;
15354;SDS011;7777;52.254;9.618;2023-07-29T10:47:50;6.03;;;3.33;;
15354;SDS011;7777;52.254;9.618;2023-07-29T10:50:19;3.37;;;2.90;;
15354;SDS011;7777;52.254;9.618;2023-07-29T10:52:53;7.00;;;3.10;;
15354;SDS011;7777;52.254;9.618;2023-07-29T10:55:25;4.40;;;2.60;;
15354;SDS011;7777;52.254;9.618;2023-07-29T10:58:06;5.40;;;2.67;;
15354;SDS011;7777;52.254;9.618;2023-07-29T11:00:47;3.73;;;3.00;;
15354;SDS011;7777;52.254;9.618;2023-07-29T11:03:14;2.47;;;2.27;;
15354;SDS011;7777;52.254;9.618;2023-07-29T11:05:44;4.20;;;3.20;;
15354;SDS011;7777;52.254;9.618;2023-07-29T11:08:30;6.97;;;2.40;;
15354;SDS011;7777;52.254;9.618;2023-07-29T11:10:57;6.07;;;2.50;;
15354;SDS011;7777;52.254;9.618;2023-07-29T11:13:29;3.47;;;2.20;;
15354;SDS011;7777;52.254;9.618;2023-07-29T11:15:56;3.00;;;2.10;;
15354;SDS011;7777;52.254;9.618;2023-07-29T11:18:33;2.07;;;1.80;;
15354;SDS011;7777;52.254;9.618;2023-07-29T11:21:01;2.37;;;1.70;;
15354;SDS011;7777;52.254;9.618;2023-07-29T11:23:31;5.73;;;1.77;;
15354;SDS011;7777;52.254;9.618;2023-07-29T11:26:01;1.40;;;1.30;;
15354;SDS011;7777;52.254;9.618;2023-07-29T11:28:28;1.10;;;1.00;;
15354;SDS011;7777;52.254;9.618;2023-07-29T11:30:55;1.80;;;1.00;;
15354;SDS011;7777;52.254;9.618;2023-07-29T11:33:24;1.27;;;1.10;;
15354;SDS011;7777;52.254;9.618;2023-07-29T11:35:53;2.40;;;1.30;;
15354;SDS011;7777;52.254;9.618;2023-07-29T11:38:20;2.43;;;1.20;;
15354;SDS011;7777;52.254;9.618;2023-07-29T11:40:53;1.27;;;0.83;;
15354;SDS011;7777;52.254;9.618;2023-07-29T11:43:25;4.80;;;1.13;;
15354;SDS011;7777;52.254;9.618;2023-07-29T11:45:51;4.70;;;1.13;;
15354;SDS011;7777;52.254;9.618;2023-07-29T11:48:18;1.63;;;0.90;;
15354;SDS011;7777;52.254;9.618;2023-07-29T11:50:53;3.07;;;1.10;;
15354;SDS011;7777;52.254;9.618;2023-07-29T11:53:20;2.10;;;0.90;;
15354;SDS011;7777;52.254;9.618;2023-07-29T11:55:49;1.33;;;0.90;;
15354;SDS011;7777;52.254;9.618;2023-07-29T11:58:18;0.90;;;0.70;;
15354;SDS011;7777;52.254;9.618;2023-07-29T12:00:44;1.00;;;0.90;;
15354;SDS011;7777;52.254;9.618;2023-07-29T12:03:10;1.00;;;0.90;;
15354;SDS011;7777;52.254;9.618;2023-07-29T12:05:37;3.93;;;0.90;;
15354;SDS011;7777;52.254;9.618;2023-07-29T12:08:03;0.67;;;0.60;;
15354;SDS011;7777;52.254;9.618;2023-07-29T12:10:29;1.30;;;0.87;;
15354;SDS011;7777;52.254;9.618;2023-07-29T12:12:55;1.60;;;0.93;;
15354;SDS011;7777;52.254;9.618;2023-07-29T12:15:27;0.83;;;0.77;;
15354;SDS011;7777;52.254;9.618;2023-07-29T12:17:58;2.63;;;0.73;;
15354;SDS011;7777;52.254;9.618;2023-07-29T12:20:25;1.50;;;0.90;;
15354;SDS011;7777;52.254;9.618;2023-07-29T12:22:53;5.10;;;1.00;;
15354;SDS011;7777;52.254;9.618;2023-07-29T12:25:23;1.37;;;1.00;;
15354;SDS011;7777;52.254;9.618;2023-07-29T12:27:51;1.17;;;0.73;;
15354;SDS011;7777;52.254;9.618;2023-07-29T12:30:19;0.80;;;0.80;;
15354;SDS011;7777;52.254;9.618;2023-07-29T12:32:47;0.87;;;0.80;;
15354;SDS011;7777;52.254;9.618;2023-07-29T12:35:13;1.93;;;0.80;;
15354;SDS011;7777;52.254;9.618;2023-07-29T12:37:39;5.00;;;1.00;;
15354;SDS011;7777;52.254;9.618;2023-07-29T12:40:08;2.80;;;0.90;;
15354;SDS011;7777;52.254;9.618;2023-07-29T12:42:55;1.30;;;0.83;;
15354;SDS011;7777;52.254;9.618;2023-07-29T12:45:21;1.43;;;0.93;;
15354;SDS011;7777;52.254;9.618;2023-07-29T12:47:52;2.13;;;0.80;;
15354;SDS011;7777;52.254;9.618;2023-07-29T12:50:17;0.77;;;0.70;;
15354;SDS011;7777;52.254;9.618;2023-07-29T12:52:43;3.53;;;1.43;;
15354;SDS011;7777;52.254;9.618;2023-07-29T12:55:09;1.17;;;1.00;;
15354;SDS011;7777;52.254;9.618;2023-07-29T12:57:38;0.83;;;0.73;;
15354;SDS011;7777;52.254;9.618;2023-07-29T13:00:06;1.60;;;1.13;;
15354;SDS011;7777;52.254;9.618;2023-07-29T13:02:34;1.47;;;0.90;;
15354;SDS011;7777;52.254;9.618;2023-07-29T13:05:06;3.03;;;0.90;;
15354;SDS011;7777;52.254;9.618;2023-07-29T13:07:35;0.70;;;0.60;;
15354;SDS011;7777;52.254;9.618;2023-07-29T13:10:03;4.47;;;1.00;;
15354;SDS011;7777;52.254;9.618;2023-07-29T13:12:29;3.27;;;0.63;;
15354;SDS011;7777;52.254;9.618;2023-07-29T13:14:54;3.53;;;0.83;;
15354;SDS011;7777;52.254;9.618;2023-07-29T13:17:21;1.10;;;0.70;;
15354;SDS011;7777;52.254;9.618;2023-07-29T13:19:47;2.33;;;0.60;;
15354;SDS011;7777;52.254;9.618;2023-07-29T13:22:14;1.10;;;0.93;;
15354;SDS011;7777;52.254;9.618;2023-07-29T13:24:39;2.17;;;0.70;;
15354;SDS011;7777;52.254;9.618;2023-07-29T13:27:05;1.70;;;0.80;;
15354;SDS011;7777;52.254;9.618;2023-07-29T13:29:31;1.20;;;0.70;;
15354;SDS011;7777;52.254;9.618;2023-07-29T13:31:57;0.73;;;0.70;;
15354;SDS011;7777;52.254;9.618;2023-07-29T13:34:23;1.23;;;1.00;;
15354;SDS011;7777;52.254;9.618;2023-07-29T13:36:48;1.07;;;0.77;;
15354;SDS011;7777;52.254;9.618;2023-07-29T13:39:15;1.77;;;0.93;;
15354;SDS011;7777;52.254;9.618;2023-07-29T13:41:40;0.90;;;0.80;;
15354;SDS011;7777;52.254;9.618;2023-07-29T13:44:07;1.23;;;0.90;;
15354;SDS011;7777;52.254;9.618;2023-07-29T13:46:32;1.93;;;0.80;;
15354;SDS011;7777;52.254;9.618;2023-07-29T13:48:58;2.93;;;0.80;;
15354;SDS011;7777;52.254;9.618;2023-07-29T13:51:24;3.93;;;0.70;;
15354;SDS011;7777;52.254;9.618;2023-07-29T13:53:49;1.87;;;0.93;;
15354;SDS011;7777;52.254;9.618;2023-07-29T13:56:15;1.40;;;0.87;;
15354;SDS011;7777;52.254;9.618;2023-07-29T13:58:41;1.73;;;0.90;;
15354;SDS011;7777;52.254;9.618;2023-07-29T14:01:07;1.00;;;0.70;;
15354;SDS011;7777;52.254;9.618;2023-07-29T14:03:33;1.00;;;0.63;;
15354;SDS011;7777;52.254;9.618;2023-07-29T14:05:58;6.90;;;0.80;;
15354;SDS011;7777;52.254;9.618;2023-07-29T14:08:24;0.80;;;0.67;;
15354;SDS011;7777;52.254;9.618;2023-07-29T14:10:50;1.03;;;0.70;;
15354;SDS011;7777;52.254;9.618;2023-07-29T14:13:15;3.63;;;1.07;;
15354;SDS011;7777;52.254;9.618;2023-07-29T14:15:41;1.30;;;0.80;;
15354;SDS011;7777;52.254;9.618;2023-07-29T14:18:07;1.67;;;1.00;;
15354;SDS011;7777;52.254;9.618;2023-07-29T14:20:33;1.83;;;1.10;;
15354;SDS011;7777;52.254;9.618;2023-07-29T14:22:58;2.20;;;0.83;;
15354;SDS011;7777;52.254;9.618;2023-07-29T14:25:24;7.73;;;0.90;;
15354;SDS011;7777;52.254;9.618;2023-07-29T14:27:50;1.20;;;1.10;;
15354;SDS011;7777;52.254;9.618;2023-07-29T14:30:16;1.43;;;1.20;;
15354;SDS011;7777;52.254;9.618;2023-07-29T14:32:42;0.70;;;0.70;;
15354;SDS011;7777;52.254;9.618;2023-07-29T14:35:07;1.07;;;0.90;;
15354;SDS011;7777;52.254;9.618;2023-07-29T14:37:34;2.20;;;1.03;;
15354;SDS011;7777;52.254;9.618;2023-07-29T14:40:00;10.40;;;1.00;;
15354;SDS011;7777;52.254;9.618;2023-07-29T14:42:27;2.40;;;1.00;;
15354;SDS011;7777;52.254;9.618;2023-07-29T14:44:53;1.77;;;1.00;;
15354;SDS011;7777;52.254;9.618;2023-07-29T14:47:19;2.17;;;1.10;;
15354;SDS011;7777;52.254;9.618;2023-07-29T14:49:45;4.23;;;1.30;;
15354;SDS011;7777;52.254;9.618;2023-07-29T14:52:11;2.83;;;0.80;;
15354;SDS011;7777;52.254;9.618;2023-07-29T14:54:36;1.47;;;1.00;;
15354;SDS011;7777;52.254;9.618;2023-07-29T14:57:02;2.70;;;1.20;;
15354;SDS011;7777;52.254;9.618;2023-07-29T14:59:31;2.53;;;0.93;;
15354;SDS011;7777;52.254;9.618;2023-07-29T15:01:56;1.07;;;0.90;;
15354;SDS011;7777;52.254;9.618;2023-07-29T15:04:22;0.97;;;0.83;;
15354;SDS011;7777;52.254;9.618;2023-07-29T15:06:48;2.47;;;0.83;;